createdAt,value
2022-09-03T00:00:33.196Z,45.81
2022-09-03T00:03:09.086Z,45.97
2022-09-03T00:05:41.708Z,45.72
2022-09-03T00:08:20.902Z,45.99
2022-09-03T00:11:01.346Z,45.92
2022-09-03T00:13:33.549Z,45.87
2022-09-03T00:16:02.031Z,45.85
2022-09-03T00:18:33.438Z,46.04
2022-09-03T00:21:15.034Z,46.03
2022-09-03T00:23:44.363Z,45.83
2022-09-03T00:26:13.700Z,46.17
2022-09-03T00:28:51.641Z,46.24
2022-09-03T00:31:38.934Z,46.56
2022-09-03T00:34:26.683Z,46.62
2022-09-03T00:36:53.671Z,46.93
2022-09-03T00:39:23.209Z,46.46
2022-09-03T00:42:09.313Z,46.70
2022-09-03T00:44:48.447Z,46.72
2022-09-03T00:47:48.917Z,46.71
2022-09-03T00:50:40.102Z,46.50
2022-09-03T00:53:20.361Z,46.77
2022-09-03T00:55:58.835Z,46.53
2022-09-03T00:58:51.841Z,46.82
2022-09-03T01:01:24.400Z,47.40
2022-09-03T01:04:05.566Z,47.33
2022-09-03T01:07:04.356Z,47.41
2022-09-03T01:10:04.513Z,47.33
2022-09-03T01:12:58.203Z,47.19
2022-09-03T01:15:40.854Z,47.28
2022-09-03T01:18:17.281Z,47.47
2022-09-03T01:21:13.640Z,47.42
2022-09-03T01:24:07.351Z,47.79
2022-09-03T01:26:55.520Z,48.09
2022-09-03T01:29:27.051Z,48.18
2022-09-03T01:32:06.627Z,48.57
2022-09-03T01:34:42.128Z,48.37
2022-09-03T01:37:11.751Z,48.36
2022-09-03T01:40:17.209Z,48.19
2022-09-03T01:43:17.671Z,48.30
2022-09-03T01:45:55.014Z,48.00
2022-09-03T01:48:30.919Z,47.92
2022-09-03T01:51:18.924Z,47.97
2022-09-03T01:54:10.951Z,47.80
2022-09-03T01:57:06.673Z,47.60
2022-09-03T01:59:49.715Z,48.13
2022-09-03T02:02:28.514Z,47.76
2022-09-03T02:05:08.856Z,47.74
2022-09-03T02:07:57.787Z,47.95
2022-09-03T02:10:41.555Z,47.67
2022-09-03T02:13:25.768Z,47.57
2022-09-03T02:15:56.368Z,47.91
2022-09-03T02:18:28.757Z,47.67
2022-09-03T02:20:55.609Z,47.83
2022-09-03T02:23:28.261Z,47.90
2022-09-03T02:26:01.960Z,48.08
2022-09-03T02:28:30.938Z,47.89
2022-09-03T02:30:58.328Z,47.86
2022-09-03T02:33:26.165Z,48.02
2022-09-03T02:35:53.950Z,47.80
2022-09-03T02:38:25.603Z,48.03
2022-09-03T02:40:54.457Z,48.20
2022-09-03T02:43:30.981Z,48.14
2022-09-03T02:46:04.204Z,48.30
2022-09-03T02:48:30.983Z,48.25
2022-09-03T02:50:57.629Z,47.79
2022-09-03T02:53:24.259Z,48.44
2022-09-03T02:55:50.859Z,48.26
2022-09-03T02:58:17.718Z,48.34
2022-09-03T03:00:45.027Z,48.70
2022-09-03T03:03:11.665Z,48.48
2022-09-03T03:05:51.161Z,48.37
2022-09-03T03:08:21.525Z,48.41
2022-09-03T03:10:49.558Z,48.49
2022-09-03T03:13:16.624Z,48.67
2022-09-03T03:15:44.267Z,48.44
2022-09-03T03:18:14.336Z,48.58
2022-09-03T03:20:42.051Z,48.31
2022-09-03T03:23:09.012Z,48.42
2022-09-03T03:25:37.797Z,48.68
2022-09-03T03:28:05.190Z,48.76
2022-09-03T03:30:33.116Z,49.43
2022-09-03T03:33:00.710Z,48.93
2022-09-03T03:35:27.295Z,49.02
2022-09-03T03:37:53.883Z,49.13
2022-09-03T03:40:20.465Z,49.42
2022-09-03T03:42:47.116Z,49.35
2022-09-03T03:45:13.689Z,49.35
2022-09-03T03:47:40.285Z,49.23
2022-09-03T03:50:07.299Z,49.29
2022-09-03T03:52:34.059Z,49.43
2022-09-03T03:55:00.895Z,49.47
2022-09-03T03:57:31.684Z,49.56
2022-09-03T03:59:58.275Z,49.71
2022-09-03T04:02:25.228Z,49.72
2022-09-03T04:04:51.838Z,49.97
2022-09-03T04:07:18.465Z,50.12
2022-09-03T04:09:45.287Z,50.16
2022-09-03T04:12:11.877Z,49.78
2022-09-03T04:14:38.919Z,49.79
2022-09-03T04:17:05.610Z,50.13
2022-09-03T04:19:32.399Z,50.23
2022-09-03T04:21:59.083Z,50.06
2022-09-03T04:24:25.708Z,49.67
2022-09-03T04:26:54.059Z,49.96
2022-09-03T04:29:22.046Z,49.92
2022-09-03T04:32:07.414Z,50.36
2022-09-03T04:34:34.026Z,50.23
2022-09-03T04:37:00.630Z,50.39
2022-09-03T04:39:27.319Z,50.03
2022-09-03T04:41:53.971Z,50.27
2022-09-03T04:44:20.629Z,49.96
2022-09-03T04:46:48.401Z,50.40
2022-09-03T04:49:15.207Z,50.22
2022-09-03T04:51:42.225Z,50.04
2022-09-03T04:54:10.253Z,50.35
2022-09-03T04:56:39.011Z,49.85
2022-09-03T04:59:08.452Z,49.95
2022-09-03T05:01:37.571Z,50.06
2022-09-03T05:04:05.644Z,50.09
2022-09-03T05:06:33.341Z,50.35
2022-09-03T05:09:00.651Z,49.97
2022-09-03T05:11:28.962Z,50.04
2022-09-03T05:13:57.924Z,50.07
2022-09-03T05:16:25.497Z,50.20
2022-09-03T05:18:54.131Z,50.30
2022-09-03T05:21:21.105Z,50.34
2022-09-03T05:23:50.747Z,50.90
2022-09-03T05:26:19.805Z,51.59
2022-09-03T05:28:47.497Z,52.75
2022-09-03T05:31:19.422Z,55.51
2022-09-03T05:33:51.886Z,56.93
2022-09-03T05:36:24.137Z,56.90
2022-09-03T05:38:51.871Z,58.03
2022-09-03T05:41:19.129Z,57.50
2022-09-03T05:43:55.195Z,59.84
2022-09-03T05:46:30.155Z,59.30
2022-09-03T05:48:57.856Z,58.29
2022-09-03T05:51:24.440Z,56.92
2022-09-03T05:53:51.076Z,57.55
2022-09-03T05:56:20.201Z,57.41
2022-09-03T05:58:49.437Z,56.89
2022-09-03T06:01:21.394Z,56.07
2022-09-03T06:03:54.170Z,56.29
2022-09-03T06:06:27.918Z,55.54
2022-09-03T06:08:56.085Z,54.66
2022-09-03T06:11:26.847Z,54.10
2022-09-03T06:13:57.772Z,54.13
2022-09-03T06:16:28.982Z,54.25
2022-09-03T06:18:58.894Z,53.47
2022-09-03T06:21:25.594Z,53.97
2022-09-03T06:23:56.643Z,55.31
2022-09-03T06:26:28.131Z,55.68
2022-09-03T06:28:56.289Z,55.38
2022-09-03T06:31:23.524Z,56.34
2022-09-03T06:33:50.191Z,56.40
2022-09-03T06:36:19.071Z,56.50
2022-09-03T06:38:46.715Z,56.44
2022-09-03T06:41:25.010Z,56.22
2022-09-03T06:44:04.647Z,57.23
2022-09-03T06:46:33.798Z,56.83
2022-09-03T06:49:00.772Z,57.01
2022-09-03T06:51:29.856Z,56.62
2022-09-03T06:54:10.590Z,56.19
2022-09-03T06:56:40.837Z,56.27
2022-09-03T06:59:12.889Z,56.04
2022-09-03T07:01:45.306Z,56.28
2022-09-03T07:04:14.746Z,56.50
2022-09-03T07:06:42.657Z,56.33
2022-09-03T07:09:11.804Z,56.40
2022-09-03T07:11:45.707Z,55.94
2022-09-03T07:14:13.040Z,55.54
2022-09-03T07:16:41.799Z,55.96
2022-09-03T07:19:09.255Z,55.42
2022-09-03T07:21:37.077Z,55.12
2022-09-03T07:24:05.660Z,55.75
2022-09-03T07:26:35.159Z,55.40
2022-09-03T07:29:02.361Z,56.10
2022-09-03T07:31:37.826Z,56.49
2022-09-03T07:34:10.190Z,56.47
2022-09-03T07:36:46.848Z,56.59
2022-09-03T07:39:16.719Z,56.86
2022-09-03T07:41:45.679Z,56.29
2022-09-03T07:44:15.382Z,55.75
2022-09-03T07:46:43.660Z,55.56
2022-09-03T07:49:11.024Z,56.28
2022-09-03T07:51:39.190Z,55.72
2022-09-03T07:54:09.823Z,56.67
2022-09-03T07:56:37.253Z,57.46
2022-09-03T07:59:04.631Z,58.10
2022-09-03T08:01:32.950Z,56.73
2022-09-03T08:04:00.880Z,57.16
2022-09-03T08:06:28.886Z,57.46
2022-09-03T08:09:04.213Z,57.45
2022-09-03T08:11:31.988Z,56.73
2022-09-03T08:14:06.655Z,57.17
2022-09-03T08:16:36.398Z,58.26
2022-09-03T08:19:03.536Z,57.97
2022-09-03T08:21:30.108Z,60.19
2022-09-03T08:24:03.609Z,60.21
2022-09-03T08:26:35.595Z,60.65
2022-09-03T08:29:02.354Z,59.67
2022-09-03T08:31:30.528Z,58.57
2022-09-03T08:33:59.531Z,58.80
2022-09-03T08:36:30.076Z,60.16
2022-09-03T08:38:58.630Z,61.00
2022-09-03T08:41:37.617Z,62.36
2022-09-03T08:44:28.603Z,63.62
2022-09-03T08:47:11.621Z,65.71
2022-09-03T08:49:49.729Z,63.67
2022-09-03T08:52:49.874Z,63.59
2022-09-03T08:55:27.186Z,63.08
2022-09-03T08:58:04.864Z,64.32
2022-09-03T09:01:15.976Z,64.88
2022-09-03T09:03:48.775Z,65.42
2022-09-03T09:06:23.722Z,66.47
2022-09-03T09:09:06.540Z,66.56
2022-09-03T09:12:07.335Z,67.05
2022-09-03T09:14:45.651Z,65.93
2022-09-03T09:17:42.018Z,65.11
2022-09-03T09:20:21.653Z,63.48
2022-09-03T09:22:54.522Z,63.29
2022-09-03T09:25:23.337Z,62.70
2022-09-03T09:28:00.315Z,61.84
2022-09-03T09:30:29.246Z,60.95
2022-09-03T09:32:56.221Z,59.02
2022-09-03T09:35:23.953Z,58.70
2022-09-03T09:37:58.535Z,59.75
2022-09-03T09:40:36.732Z,62.97
2022-09-03T09:43:17.329Z,62.13
2022-09-03T09:45:46.188Z,62.48
2022-09-03T09:48:32.662Z,60.15
2022-09-03T09:51:09.774Z,57.14
2022-09-03T09:53:36.761Z,55.66
2022-09-03T09:56:03.955Z,56.09
2022-09-03T09:58:33.150Z,52.95
2022-09-03T10:01:03.558Z,50.08
2022-09-03T10:03:35.682Z,47.42
2022-09-03T10:06:27.463Z,46.74
2022-09-03T10:09:07.496Z,48.72
2022-09-03T10:11:38.894Z,48.73
2022-09-03T10:14:13.468Z,49.20
2022-09-03T10:16:48.962Z,49.07
2022-09-03T10:19:23.440Z,50.12
2022-09-03T10:22:06.076Z,52.18
2022-09-03T10:24:59.099Z,52.65
2022-09-03T10:27:25.944Z,54.32
2022-09-03T10:29:53.401Z,54.42
2022-09-03T10:32:38.861Z,54.83
2022-09-03T10:35:12.619Z,56.48
2022-09-03T10:37:39.195Z,54.93
2022-09-03T10:40:30.803Z,54.48
2022-09-03T10:43:17.660Z,54.54
2022-09-03T10:45:53.351Z,54.94
2022-09-03T10:48:38.499Z,55.40
2022-09-03T10:51:15.993Z,55.27
2022-09-03T10:54:13.779Z,57.05
2022-09-03T10:57:12.060Z,56.13
2022-09-03T10:59:58.847Z,56.41
2022-09-03T11:02:43.587Z,57.09
2022-09-03T11:05:10.203Z,56.20
2022-09-03T11:07:40.990Z,54.50
2022-09-03T11:10:30.688Z,55.50
2022-09-03T11:13:07.708Z,56.60
2022-09-03T11:15:37.179Z,55.48
2022-09-03T11:18:16.018Z,54.42
2022-09-03T11:20:44.136Z,53.70
2022-09-03T11:23:13.505Z,55.01
2022-09-03T11:25:49.462Z,55.34
2022-09-03T11:28:33.060Z,54.91
2022-09-03T11:31:35.195Z,53.78
2022-09-03T11:34:13.982Z,53.14
2022-09-03T11:36:48.816Z,54.24
2022-09-03T11:39:23.315Z,53.51
2022-09-03T11:42:02.171Z,53.60
2022-09-03T11:44:47.666Z,54.39
2022-09-03T11:47:24.240Z,52.71
2022-09-03T11:49:53.811Z,52.35
2022-09-03T11:52:40.394Z,49.49
2022-09-03T11:55:08.088Z,48.30
2022-09-03T11:57:43.895Z,47.58
2022-09-03T12:00:21.167Z,46.54
2022-09-03T12:02:58.941Z,46.19
2022-09-03T12:05:25.815Z,48.71
2022-09-03T12:08:20.205Z,48.02
2022-09-03T12:11:13.984Z,47.36
2022-09-03T12:14:20.581Z,47.64
2022-09-03T12:16:59.174Z,47.59
2022-09-03T12:19:36.228Z,48.95
2022-09-03T12:22:04.258Z,50.83
2022-09-03T12:24:37.826Z,50.86
2022-09-03T12:27:05.670Z,50.52
2022-09-03T12:29:32.280Z,49.31
2022-09-03T12:32:08.216Z,48.80
2022-09-03T12:34:34.870Z,48.77
2022-09-03T12:37:02.863Z,47.70
2022-09-03T12:42:25.894Z,47.50
2022-09-03T12:44:53.454Z,47.74
2022-09-03T12:47:38.569Z,48.08
2022-09-03T12:50:19.751Z,50.06
2022-09-03T12:52:52.428Z,50.83
2022-09-03T12:55:22.138Z,50.94
2022-09-03T12:57:57.850Z,50.94
2022-09-03T13:00:32.804Z,51.89
2022-09-03T13:02:59.384Z,54.14
2022-09-03T13:05:33.939Z,55.46
2022-09-03T13:08:05.342Z,56.10
2022-09-03T13:10:38.064Z,56.03
2022-09-03T13:13:16.391Z,55.03
2022-09-03T13:15:58.206Z,53.38
2022-09-03T13:18:43.550Z,50.99
2022-09-03T13:21:15.172Z,49.72
2022-09-03T13:24:02.104Z,48.66
2022-09-03T13:26:35.686Z,48.46
2022-09-03T13:29:08.344Z,49.38
2022-09-03T13:31:43.178Z,49.00
2022-09-03T13:34:20.986Z,49.22
2022-09-03T13:37:04.634Z,49.68
2022-09-03T13:39:39.945Z,48.81
2022-09-03T13:42:18.298Z,50.10
2022-09-03T13:44:55.370Z,49.07
2022-09-03T13:48:02.895Z,48.57
2022-09-03T13:50:37.920Z,47.97
2022-09-03T13:53:10.264Z,47.40
2022-09-03T13:55:56.136Z,49.45
2022-09-03T13:58:34.012Z,49.87
2022-09-03T14:01:15.953Z,49.88
2022-09-03T14:04:02.816Z,50.13
2022-09-03T14:06:41.044Z,50.02
2022-09-03T14:09:35.324Z,50.17
2022-09-03T14:12:19.243Z,51.35
2022-09-03T14:15:03.161Z,52.22
2022-09-03T14:17:48.677Z,54.41
2022-09-03T14:20:45.763Z,55.48
2022-09-03T14:23:55.057Z,56.26
2022-09-03T14:26:39.966Z,56.71
2022-09-03T14:29:12.894Z,56.93
2022-09-03T14:31:57.795Z,57.87
2022-09-03T14:35:08.812Z,57.96
2022-09-03T14:38:07.691Z,57.98
2022-09-03T14:40:58.673Z,57.00
2022-09-03T14:43:46.537Z,55.01
2022-09-03T14:46:46.116Z,53.16
2022-09-03T14:49:18.171Z,53.97
2022-09-03T14:52:12.830Z,53.10
2022-09-03T14:54:58.138Z,52.39
2022-09-03T14:57:31.559Z,51.63
2022-09-03T15:00:20.244Z,52.50
2022-09-03T15:02:57.725Z,53.47
2022-09-03T15:05:33.364Z,53.54
2022-09-03T15:08:08.173Z,55.08
2022-09-03T15:10:56.828Z,55.66
2022-09-03T15:13:50.006Z,55.87
2022-09-03T15:16:43.412Z,56.47
2022-09-03T15:19:19.565Z,57.64
2022-09-03T15:21:54.775Z,57.91
2022-09-03T15:24:54.596Z,57.67
2022-09-03T15:27:33.144Z,57.98
2022-09-03T15:30:15.012Z,58.24
2022-09-03T15:33:10.613Z,57.56
2022-09-03T15:35:49.825Z,58.33
2022-09-03T15:38:45.363Z,59.53
2022-09-03T15:41:39.896Z,60.30
2022-09-03T15:44:19.147Z,60.18
2022-09-03T15:47:05.338Z,60.13
2022-09-03T15:49:53.054Z,60.58
2022-09-03T15:52:33.449Z,59.53
2022-09-03T15:55:09.553Z,59.88
2022-09-03T15:57:54.720Z,59.97
2022-09-03T16:00:22.120Z,59.80
2022-09-03T16:03:11.924Z,60.54
2022-09-03T16:05:47.619Z,60.85
2022-09-03T16:08:29.532Z,60.99
2022-09-03T16:11:27.272Z,61.79
2022-09-03T16:13:59.696Z,61.72
2022-09-03T16:16:47.707Z,62.05
2022-09-03T16:19:24.392Z,62.00
2022-09-03T16:22:07.215Z,63.47
2022-09-03T16:24:45.152Z,64.76
2022-09-03T16:27:20.315Z,64.73
2022-09-03T16:29:59.315Z,65.72
2022-09-03T16:33:06.108Z,65.01
2022-09-03T16:36:00.849Z,65.83
2022-09-03T16:38:48.422Z,66.11
2022-09-03T16:42:02.736Z,67.08
2022-09-03T16:44:45.945Z,68.35
2022-09-03T16:47:26.533Z,65.61
2022-09-03T16:50:13.557Z,64.98
2022-09-03T16:53:01.832Z,63.23
2022-09-03T16:55:54.306Z,63.22
2022-09-03T16:58:26.826Z,61.63
2022-09-03T17:01:18.499Z,62.46
2022-09-03T17:03:53.346Z,62.24
2022-09-03T17:06:36.354Z,62.89
2022-09-03T17:09:27.944Z,63.93
2022-09-03T17:12:05.535Z,65.17
2022-09-03T17:15:09.300Z,66.28
2022-09-03T17:17:48.746Z,66.29
2022-09-03T17:20:20.033Z,67.12
2022-09-03T17:23:09.633Z,67.79
2022-09-03T17:25:47.844Z,67.90
2022-09-03T17:28:42.714Z,67.65
2022-09-03T17:31:36.905Z,67.69
2022-09-03T17:34:25.215Z,68.10
2022-09-03T17:37:08.227Z,67.88
2022-09-03T17:40:20.204Z,68.31
2022-09-03T17:42:55.922Z,68.46
2022-09-03T17:45:52.186Z,69.98
2022-09-03T17:49:01.304Z,71.39
2022-09-03T17:51:50.459Z,71.28
2022-09-03T17:54:25.875Z,71.70
2022-09-03T17:57:25.142Z,72.95
2022-09-03T18:00:06.745Z,73.59
2022-09-03T18:02:45.436Z,73.72
2022-09-03T18:05:19.391Z,74.20
2022-09-03T18:08:23.522Z,75.10
2022-09-03T18:11:09.199Z,74.85
2022-09-03T18:14:05.470Z,75.85
2022-09-03T18:16:34.724Z,75.98
2022-09-03T18:19:53.172Z,76.40
2022-09-03T18:22:41.276Z,76.44
2022-09-03T18:25:28.969Z,76.63
2022-09-03T18:28:19.270Z,78.23
2022-09-03T18:31:04.752Z,78.29
2022-09-03T18:33:50.026Z,79.04
2022-09-03T18:36:35.351Z,79.15
2022-09-03T18:39:34.376Z,78.87
2022-09-03T18:42:35.849Z,80.34
2022-09-03T18:46:17.558Z,82.43
2022-09-03T18:48:57.394Z,82.58
2022-09-03T18:51:59.433Z,84.56
2022-09-03T18:55:10.303Z,85.40
2022-09-03T18:58:21.903Z,84.64
2022-09-03T19:01:17.777Z,83.32
2022-09-03T19:04:17.855Z,83.92
2022-09-03T19:07:12.154Z,83.75
2022-09-03T19:10:12.672Z,82.44
2022-09-03T19:13:07.627Z,84.99
2022-09-03T19:16:03.919Z,85.87
2022-09-03T19:18:55.638Z,85.46
2022-09-03T19:21:57.738Z,86.75
2022-09-03T19:24:48.465Z,84.08
2022-09-03T19:28:00.413Z,85.18
2022-09-03T19:31:03.355Z,86.34
2022-09-03T19:34:33.685Z,88.10
2022-09-03T19:37:48.697Z,84.69
2022-09-03T19:41:12.022Z,87.92
2022-09-03T19:44:26.800Z,87.76
2022-09-03T19:47:16.575Z,86.50
2022-09-03T19:50:05.024Z,87.34
2022-09-03T19:53:11.563Z,88.18
2022-09-03T19:56:19.136Z,88.62
2022-09-03T19:59:18.963Z,87.53
2022-09-03T20:02:04.649Z,87.43
2022-09-03T20:05:00.465Z,88.45
2022-09-03T20:07:46.372Z,88.42
2022-09-03T20:10:22.430Z,89.17
2022-09-03T20:12:54.892Z,89.34
2022-09-03T20:15:26.379Z,89.99
2022-09-03T20:18:05.713Z,90.08
2022-09-03T20:20:52.271Z,90.07
2022-09-03T20:23:33.976Z,91.79
2022-09-03T20:26:27.913Z,91.34
2022-09-03T20:29:00.480Z,91.72
2022-09-03T20:31:29.819Z,91.22
2022-09-03T20:34:33.866Z,90.81
2022-09-03T20:37:15.539Z,89.65
2022-09-03T20:40:10.134Z,90.16
2022-09-03T20:42:45.452Z,90.29
2022-09-03T20:45:17.955Z,89.82
2022-09-03T20:47:45.107Z,90.24
2022-09-03T20:50:37.305Z,91.90
2022-09-03T20:53:24.687Z,90.43
2022-09-03T20:55:56.550Z,92.40
2022-09-03T20:59:01.340Z,90.22
2022-09-03T21:01:30.784Z,90.73
2022-09-03T21:04:21.366Z,91.60
2022-09-03T21:07:05.554Z,92.65
2022-09-03T21:10:03.855Z,92.46
2022-09-03T21:12:49.274Z,91.87
2022-09-03T21:15:22.366Z,93.13
2022-09-03T21:18:14.684Z,93.25
2022-09-03T21:20:57.047Z,93.29
2022-09-03T21:23:38.294Z,93.55
2022-09-03T21:26:14.693Z,92.83
2022-09-03T21:28:45.618Z,93.26
2022-09-03T21:31:21.930Z,92.90
2022-09-03T21:33:54.161Z,93.37
2022-09-03T21:36:30.355Z,94.03
2022-09-03T21:39:10.514Z,94.67
2022-09-03T21:41:41.886Z,94.00
2022-09-03T21:44:17.679Z,92.44
2022-09-03T21:46:56.643Z,93.29
2022-09-03T21:49:29.281Z,94.01
2022-09-03T21:52:02.063Z,93.88
2022-09-03T21:54:35.836Z,93.38
2022-09-03T21:57:08.401Z,94.90
2022-09-03T22:00:11.802Z,94.45
2022-09-03T22:02:41.264Z,94.50
2022-09-03T22:05:08.633Z,94.78
2022-09-03T22:07:53.910Z,95.24
2022-09-03T22:10:35.149Z,95.39
2022-09-03T22:13:14.897Z,97.20
2022-09-03T22:15:51.916Z,95.58
2022-09-03T22:18:29.242Z,96.07
2022-09-03T22:21:28.193Z,95.93
2022-09-03T22:24:39.928Z,96.09
2022-09-03T22:27:25.297Z,96.91
2022-09-03T22:30:37.651Z,97.84
2022-09-03T22:33:18.799Z,100.00
2022-09-03T22:35:54.568Z,98.67
2022-09-03T22:38:39.667Z,98.82
2022-09-03T22:41:43.953Z,100.00
2022-09-03T22:44:32.134Z,100.00
2022-09-03T22:47:28.074Z,99.65
2022-09-03T22:50:11.237Z,98.55
2022-09-03T22:52:41.407Z,98.05
2022-09-03T22:55:23.304Z,98.32
2022-09-03T22:57:53.269Z,96.77
2022-09-03T23:00:20.868Z,98.01
2022-09-03T23:03:00.067Z,98.13
2022-09-03T23:05:41.574Z,98.15
2022-09-03T23:08:27.479Z,99.21
2022-09-03T23:11:10.722Z,98.00
2022-09-03T23:13:50.281Z,98.37
2022-09-03T23:16:30.362Z,98.09
2022-09-03T23:18:59.737Z,98.27
2022-09-03T23:21:41.794Z,98.14
2022-09-03T23:24:27.082Z,98.63
2022-09-03T23:26:54.253Z,97.32
2022-09-03T23:29:53.723Z,94.60
2022-09-03T23:32:20.643Z,97.95
2022-09-03T23:34:47.244Z,98.52
2022-09-03T23:37:32.891Z,99.71
2022-09-03T23:40:34.539Z,100.00
2022-09-03T23:43:24.226Z,100.00
2022-09-03T23:46:25.326Z,100.00
2022-09-03T23:49:09.876Z,99.67
2022-09-03T23:52:01.265Z,99.29
2022-09-03T23:55:02.981Z,99.41
2022-09-03T23:57:53.150Z,95.72
